sensor_id;sensor_type;location;lat;lon;timestamp;pressure;altitude;pressure_sealevel;temperature;humidity
59154;BME280;44935;48.944;9.418;2023-11-22T00:01:11;99013.70;;;8.01;54.74
59154;BME280;44935;48.944;9.418;2023-11-22T00:03:38;99017.06;;;8.70;53.73
59154;BME280;44935;48.944;9.418;2023-11-22T00:06:05;99018.06;;;6.39;57.06
59154;BME280;44935;48.944;9.418;2023-11-22T00:08:32;99020.35;;;7.62;55.65
59154;BME280;44935;48.944;9.418;2023-11-22T00:10:59;99021.16;;;7.00;56.21
59154;BME280;44935;48.944;9.418;2023-11-22T00:13:26;99021.78;;;8.20;53.99
59154;BME280;44935;48.944;9.418;2023-11-22T00:15:53;99021.14;;;8.77;52.80
59154;BME280;44935;48.944;9.418;2023-11-22T00:18:20;99023.94;;;8.67;52.92
59154;BME280;44935;48.944;9.418;2023-11-22T00:20:46;99022.45;;;8.31;52.72
59154;BME280;44935;48.944;9.418;2023-11-22T00:23:13;99024.96;;;8.82;52.73
59154;BME280;44935;48.944;9.418;2023-11-22T00:25:40;99025.34;;;9.12;52.05
59154;BME280;44935;48.944;9.418;2023-11-22T00:28:07;99023.03;;;8.40;53.33
59154;BME280;44935;48.944;9.418;2023-11-22T00:30:34;99022.97;;;8.38;52.27
59154;BME280;44935;48.944;9.418;2023-11-22T00:33:01;99025.66;;;9.72;50.81
59154;BME280;44935;48.944;9.418;2023-11-22T00:35:28;99025.12;;;8.02;52.17
59154;BME280;44935;48.944;9.418;2023-11-22T00:37:54;99028.32;;;9.40;50.71
59154;BME280;44935;48.944;9.418;2023-11-22T00:40:21;99033.14;;;8.98;50.41
59154;BME280;44935;48.944;9.418;2023-11-22T00:42:48;99027.14;;;8.45;51.81
59154;BME280;44935;48.944;9.418;2023-11-22T00:45:15;99031.36;;;9.54;50.17
59154;BME280;44935;48.944;9.418;2023-11-22T00:47:42;99041.27;;;9.62;50.29
59154;BME280;44935;48.944;9.418;2023-11-22T00:50:09;99047.57;;;9.36;51.12
59154;BME280;44935;48.944;9.418;2023-11-22T00:52:37;99051.98;;;9.37;50.27
59154;BME280;44935;48.944;9.418;2023-11-22T00:55:04;99054.71;;;9.20;49.29
59154;BME280;44935;48.944;9.418;2023-11-22T00:57:31;99060.17;;;8.02;51.64
59154;BME280;44935;48.944;9.418;2023-11-22T00:59:58;99066.07;;;5.47;55.60
59154;BME280;44935;48.944;9.418;2023-11-22T01:02:25;99074.26;;;5.04;57.91
59154;BME280;44935;48.944;9.418;2023-11-22T01:04:52;99072.31;;;7.01;54.60
59154;BME280;44935;48.944;9.418;2023-11-22T01:07:19;99072.58;;;5.04;57.73
59154;BME280;44935;48.944;9.418;2023-11-22T01:09:46;99067.11;;;7.23;54.38
59154;BME280;44935;48.944;9.418;2023-11-22T01:12:13;99071.95;;;7.86;53.14
59154;BME280;44935;48.944;9.418;2023-11-22T01:14:39;99079.91;;;7.30;53.24
59154;BME280;44935;48.944;9.418;2023-11-22T01:17:07;99085.68;;;5.60;56.31
59154;BME280;44935;48.944;9.418;2023-11-22T01:19:34;99085.78;;;7.17;53.70
59154;BME280;44935;48.944;9.418;2023-11-22T01:22:01;99093.95;;;7.74;51.82
59154;BME280;44935;48.944;9.418;2023-11-22T01:24:28;99102.50;;;5.05;57.21
59154;BME280;44935;48.944;9.418;2023-11-22T01:26:54;99098.37;;;4.42;57.74
59154;BME280;44935;48.944;9.418;2023-11-22T01:29:21;99097.04;;;6.00;54.77
59154;BME280;44935;48.944;9.418;2023-11-22T01:31:48;99097.16;;;5.28;56.69
59154;BME280;44935;48.944;9.418;2023-11-22T01:34:15;99098.58;;;5.81;54.01
59154;BME280;44935;48.944;9.418;2023-11-22T01:36:43;99091.97;;;6.25;54.14
59154;BME280;44935;48.944;9.418;2023-11-22T01:39:11;99089.99;;;6.91;53.84
59154;BME280;44935;48.944;9.418;2023-11-22T01:41:37;99089.17;;;7.27;52.25
59154;BME280;44935;48.944;9.418;2023-11-22T01:44:04;99101.53;;;6.74;52.92
59154;BME280;44935;48.944;9.418;2023-11-22T01:46:31;99107.69;;;6.93;53.04
59154;BME280;44935;48.944;9.418;2023-11-22T01:48:58;99113.10;;;6.92;51.86
59154;BME280;44935;48.944;9.418;2023-11-22T01:51:25;99116.34;;;6.79;52.39
59154;BME280;44935;48.944;9.418;2023-11-22T01:53:54;99127.54;;;6.67;51.63
59154;BME280;44935;48.944;9.418;2023-11-22T01:56:23;99131.74;;;6.70;50.39
59154;BME280;44935;48.944;9.418;2023-11-22T01:58:52;99135.86;;;7.65;50.46
59154;BME280;44935;48.944;9.418;2023-11-22T02:01:20;99141.97;;;8.15;48.97
59154;BME280;44935;48.944;9.418;2023-11-22T02:03:47;99140.17;;;8.07;47.99
59154;BME280;44935;48.944;9.418;2023-11-22T02:06:16;99145.99;;;5.42;51.91
59154;BME280;44935;48.944;9.418;2023-11-22T02:08:43;99144.34;;;6.57;50.73
59154;BME280;44935;48.944;9.418;2023-11-22T02:11:10;99152.10;;;7.38;49.73
59154;BME280;44935;48.944;9.418;2023-11-22T02:13:36;99159.92;;;7.11;50.55
59154;BME280;44935;48.944;9.418;2023-11-22T02:16:04;99163.76;;;7.29;48.57
59154;BME280;44935;48.944;9.418;2023-11-22T02:18:31;99169.32;;;7.24;48.97
59154;BME280;44935;48.944;9.418;2023-11-22T02:20:58;99177.15;;;7.07;48.52
59154;BME280;44935;48.944;9.418;2023-11-22T02:23:25;99183.78;;;5.66;49.66
59154;BME280;44935;48.944;9.418;2023-11-22T02:25:52;99186.51;;;5.61;51.26
59154;BME280;44935;48.944;9.418;2023-11-22T02:28:19;99186.95;;;5.69;50.08
59154;BME280;44935;48.944;9.418;2023-11-22T02:30:45;99183.38;;;6.65;50.31
59154;BME280;44935;48.944;9.418;2023-11-22T02:33:12;99187.21;;;6.78;49.79
59154;BME280;44935;48.944;9.418;2023-11-22T02:35:39;99181.57;;;7.67;48.22
59154;BME280;44935;48.944;9.418;2023-11-22T02:38:06;99182.39;;;5.68;50.21
59154;BME280;44935;48.944;9.418;2023-11-22T02:40:33;99180.43;;;7.17;49.21
59154;BME280;44935;48.944;9.418;2023-11-22T02:43:01;99189.27;;;4.91;50.90
59154;BME280;44935;48.944;9.418;2023-11-22T02:45:28;99181.54;;;4.88;51.95
59154;BME280;44935;48.944;9.418;2023-11-22T02:47:55;99184.73;;;5.53;51.57
59154;BME280;44935;48.944;9.418;2023-11-22T02:50:22;99182.45;;;6.51;51.19
59154;BME280;44935;48.944;9.418;2023-11-22T02:52:49;99185.57;;;6.72;49.96
59154;BME280;44935;48.944;9.418;2023-11-22T02:55:16;99188.48;;;6.88;49.33
59154;BME280;44935;48.944;9.418;2023-11-22T02:57:43;99195.60;;;6.86;50.54
59154;BME280;44935;48.944;9.418;2023-11-22T03:00:10;99194.45;;;7.11;50.14
59154;BME280;44935;48.944;9.418;2023-11-22T03:02:38;99196.32;;;7.74;47.73
59154;BME280;44935;48.944;9.418;2023-11-22T03:05:06;99198.51;;;7.45;49.18
59154;BME280;44935;48.944;9.418;2023-11-22T03:07:33;99201.07;;;6.44;46.13
59154;BME280;44935;48.944;9.418;2023-11-22T03:10:00;99204.63;;;5.17;51.58
59154;BME280;44935;48.944;9.418;2023-11-22T03:12:59;99210.57;;;6.20;49.31
59154;BME280;44935;48.944;9.418;2023-11-22T03:15:27;99216.50;;;6.70;45.92
59154;BME280;44935;48.944;9.418;2023-11-22T03:17:53;99223.16;;;7.00;44.86
59154;BME280;44935;48.944;9.418;2023-11-22T03:20:20;99231.34;;;7.32;45.58
59154;BME280;44935;48.944;9.418;2023-11-22T03:22:47;99235.91;;;7.73;45.02
59154;BME280;44935;48.944;9.418;2023-11-22T03:25:14;99244.41;;;4.82;49.74
59154;BME280;44935;48.944;9.418;2023-11-22T03:27:41;99246.18;;;5.49;49.99
59154;BME280;44935;48.944;9.418;2023-11-22T03:30:08;99244.16;;;3.27;51.92
59154;BME280;44935;48.944;9.418;2023-11-22T03:32:36;99247.62;;;3.91;51.58
59154;BME280;44935;48.944;9.418;2023-11-22T03:35:03;99249.65;;;3.91;50.76
59154;BME280;44935;48.944;9.418;2023-11-22T03:37:30;99253.07;;;5.59;50.19
59154;BME280;44935;48.944;9.418;2023-11-22T03:39:57;99265.09;;;5.44;48.74
59154;BME280;44935;48.944;9.418;2023-11-22T03:42:24;99275.16;;;6.10;47.02
59154;BME280;44935;48.944;9.418;2023-11-22T03:44:51;99272.31;;;6.98;48.16
59154;BME280;44935;48.944;9.418;2023-11-22T03:47:18;99277.46;;;5.25;49.04
59154;BME280;44935;48.944;9.418;2023-11-22T03:49:45;99278.61;;;4.85;49.80
59154;BME280;44935;48.944;9.418;2023-11-22T03:52:12;99278.55;;;6.00;48.69
59154;BME280;44935;48.944;9.418;2023-11-22T03:54:40;99288.79;;;7.08;47.10
59154;BME280;44935;48.944;9.418;2023-11-22T03:57:06;99297.79;;;7.20;46.86
59154;BME280;44935;48.944;9.418;2023-11-22T03:59:34;99291.79;;;7.46;46.45
59154;BME280;44935;48.944;9.418;2023-11-22T04:02:02;99289.98;;;6.43;47.95
59154;BME280;44935;48.944;9.418;2023-11-22T04:04:29;99289.75;;;7.02;46.07
59154;BME280;44935;48.944;9.418;2023-11-22T04:06:56;99277.78;;;7.64;45.11
59154;BME280;44935;48.944;9.418;2023-11-22T04:09:22;99288.28;;;5.90;48.69
59154;BME280;44935;48.944;9.418;2023-11-22T04:11:49;99293.01;;;6.89;45.30
59154;BME280;44935;48.944;9.418;2023-11-22T04:14:16;99297.14;;;7.10;43.91
59154;BME280;44935;48.944;9.418;2023-11-22T04:16:43;99300.73;;;4.81;46.32
59154;BME280;44935;48.944;9.418;2023-11-22T04:19:10;99306.08;;;5.27;48.70
59154;BME280;44935;48.944;9.418;2023-11-22T04:21:37;99308.08;;;5.34;46.97
59154;BME280;44935;48.944;9.418;2023-11-22T04:24:05;99310.43;;;6.75;46.29
59154;BME280;44935;48.944;9.418;2023-11-22T04:26:32;99308.74;;;6.79;46.06
59154;BME280;44935;48.944;9.418;2023-11-22T04:28:58;99311.21;;;6.89;46.96
59154;BME280;44935;48.944;9.418;2023-11-22T04:31:25;99312.48;;;7.23;46.37
59154;BME280;44935;48.944;9.418;2023-11-22T04:33:52;99317.90;;;6.88;47.40
59154;BME280;44935;48.944;9.418;2023-11-22T04:36:19;99318.36;;;7.34;45.94
59154;BME280;44935;48.944;9.418;2023-11-22T04:38:46;99325.64;;;6.97;45.63
59154;BME280;44935;48.944;9.418;2023-11-22T04:41:13;99328.70;;;7.46;45.44
59154;BME280;44935;48.944;9.418;2023-11-22T04:43:40;99328.91;;;7.64;45.60
59154;BME280;44935;48.944;9.418;2023-11-22T04:46:07;99339.98;;;7.07;46.55
59154;BME280;44935;48.944;9.418;2023-11-22T04:48:34;99346.49;;;6.85;44.28
59154;BME280;44935;48.944;9.418;2023-11-22T04:51:01;99351.14;;;6.73;46.04
59154;BME280;44935;48.944;9.418;2023-11-22T04:53:28;99348.23;;;6.83;46.02
59154;BME280;44935;48.944;9.418;2023-11-22T04:55:54;99347.42;;;6.92;45.86
59154;BME280;44935;48.944;9.418;2023-11-22T04:58:21;99354.27;;;7.20;45.99
59154;BME280;44935;48.944;9.418;2023-11-22T05:00:48;99358.29;;;7.10;45.72
59154;BME280;44935;48.944;9.418;2023-11-22T05:03:15;99365.23;;;6.98;45.96
59154;BME280;44935;48.944;9.418;2023-11-22T05:05:42;99372.58;;;7.00;45.38
59154;BME280;44935;48.944;9.418;2023-11-22T05:08:09;99368.88;;;7.59;45.27
59154;BME280;44935;48.944;9.418;2023-11-22T05:10:35;99376.37;;;7.54;45.42
59154;BME280;44935;48.944;9.418;2023-11-22T05:13:02;99382.57;;;8.03;45.10
59154;BME280;44935;48.944;9.418;2023-11-22T05:15:29;99384.44;;;7.33;45.01
59154;BME280;44935;48.944;9.418;2023-11-22T05:17:56;99383.02;;;7.18;45.68
59154;BME280;44935;48.944;9.418;2023-11-22T05:20:23;99383.29;;;7.17;47.16
59154;BME280;44935;48.944;9.418;2023-11-22T05:22:50;99388.84;;;7.05;46.97
59154;BME280;44935;48.944;9.418;2023-11-22T05:25:17;99394.79;;;7.22;46.05
59154;BME280;44935;48.944;9.418;2023-11-22T05:27:44;99393.31;;;7.78;45.23
59154;BME280;44935;48.944;9.418;2023-11-22T05:30:11;99396.20;;;7.14;44.61
59154;BME280;44935;48.944;9.418;2023-11-22T05:32:38;99395.65;;;7.09;44.77
59154;BME280;44935;48.944;9.418;2023-11-22T05:35:06;99393.15;;;7.78;44.40
59154;BME280;44935;48.944;9.418;2023-11-22T05:37:33;99391.01;;;7.61;44.80
59154;BME280;44935;48.944;9.418;2023-11-22T05:40:00;99397.19;;;7.54;45.00
59154;BME280;44935;48.944;9.418;2023-11-22T05:42:27;99403.12;;;7.36;45.90
59154;BME280;44935;48.944;9.418;2023-11-22T05:44:54;99401.72;;;7.34;45.62
59154;BME280;44935;48.944;9.418;2023-11-22T05:47:21;99396.46;;;7.49;45.51
59154;BME280;44935;48.944;9.418;2023-11-22T05:49:48;99401.47;;;7.55;45.88
59154;BME280;44935;48.944;9.418;2023-11-22T05:52:15;99408.03;;;7.81;44.80
59154;BME280;44935;48.944;9.418;2023-11-22T05:54:41;99408.35;;;7.59;46.04
59154;BME280;44935;48.944;9.418;2023-11-22T05:57:08;99408.82;;;7.76;45.74
59154;BME280;44935;48.944;9.418;2023-11-22T05:59:36;99419.55;;;7.79;45.44
59154;BME280;44935;48.944;9.418;2023-11-22T06:02:03;99419.59;;;8.00;44.54
59154;BME280;44935;48.944;9.418;2023-11-22T06:04:31;99429.61;;;7.15;47.09
59154;BME280;44935;48.944;9.418;2023-11-22T06:06:58;99438.58;;;7.44;46.82
59154;BME280;44935;48.944;9.418;2023-11-22T06:09:25;99445.91;;;7.57;44.33
59154;BME280;44935;48.944;9.418;2023-11-22T06:11:51;99448.52;;;7.91;44.44
59154;BME280;44935;48.944;9.418;2023-11-22T06:14:18;99447.48;;;6.54;44.39
59154;BME280;44935;48.944;9.418;2023-11-22T06:16:45;99446.21;;;7.73;44.38
59154;BME280;44935;48.944;9.418;2023-11-22T06:19:12;99452.02;;;8.09;42.40
59154;BME280;44935;48.944;9.418;2023-11-22T06:21:39;99455.87;;;8.20;42.46
59154;BME280;44935;48.944;9.418;2023-11-22T06:24:06;99463.05;;;6.65;44.20
59154;BME280;44935;48.944;9.418;2023-11-22T06:26:34;99472.20;;;5.37;46.86
59154;BME280;44935;48.944;9.418;2023-11-22T06:29:01;99470.32;;;6.14;46.59
59154;BME280;44935;48.944;9.418;2023-11-22T06:31:27;99472.49;;;7.33;45.34
59154;BME280;44935;48.944;9.418;2023-11-22T06:33:54;99471.50;;;7.34;43.53
59154;BME280;44935;48.944;9.418;2023-11-22T06:36:21;99470.19;;;6.49;45.66
59154;BME280;44935;48.944;9.418;2023-11-22T06:38:48;99474.88;;;5.53;46.44
59154;BME280;44935;48.944;9.418;2023-11-22T06:41:15;99468.87;;;7.49;44.85
59154;BME280;44935;48.944;9.418;2023-11-22T06:43:42;99469.25;;;6.73;44.46
59154;BME280;44935;48.944;9.418;2023-11-22T06:46:09;99475.65;;;6.16;45.88
59154;BME280;44935;48.944;9.418;2023-11-22T06:48:36;99483.52;;;6.87;45.70
59154;BME280;44935;48.944;9.418;2023-11-22T06:51:03;99488.48;;;7.59;44.97
59154;BME280;44935;48.944;9.418;2023-11-22T06:53:29;99493.89;;;7.62;44.23
59154;BME280;44935;48.944;9.418;2023-11-22T06:55:56;99493.22;;;7.30;43.99
59154;BME280;44935;48.944;9.418;2023-11-22T06:58:23;99493.80;;;7.99;44.04
59154;BME280;44935;48.944;9.418;2023-11-22T07:00:50;99492.72;;;8.25;42.81
59154;BME280;44935;48.944;9.418;2023-11-22T07:03:17;99492.63;;;6.60;45.04
59154;BME280;44935;48.944;9.418;2023-11-22T07:05:44;99498.73;;;7.08;43.87
59154;BME280;44935;48.944;9.418;2023-11-22T07:08:11;99499.85;;;6.51;44.09
59154;BME280;44935;48.944;9.418;2023-11-22T07:10:39;99503.00;;;4.61;47.45
59154;BME280;44935;48.944;9.418;2023-11-22T07:13:06;99509.24;;;4.17;47.79
59154;BME280;44935;48.944;9.418;2023-11-22T07:15:33;99510.44;;;4.60;45.47
59154;BME280;44935;48.944;9.418;2023-11-22T07:18:00;99513.21;;;4.53;47.07
59154;BME280;44935;48.944;9.418;2023-11-22T07:20:27;99520.01;;;4.35;47.96
59154;BME280;44935;48.944;9.418;2023-11-22T07:22:54;99527.00;;;5.01;46.06
59154;BME280;44935;48.944;9.418;2023-11-22T07:25:21;99532.06;;;4.93;45.39
59154;BME280;44935;48.944;9.418;2023-11-22T07:27:47;99538.60;;;5.79;44.00
59154;BME280;44935;48.944;9.418;2023-11-22T07:30:15;99553.35;;;4.27;47.62
59154;BME280;44935;48.944;9.418;2023-11-22T07:32:42;99558.32;;;2.54;49.17
59154;BME280;44935;48.944;9.418;2023-11-22T07:35:09;99572.67;;;4.29;47.73
59154;BME280;44935;48.944;9.418;2023-11-22T07:37:36;99575.36;;;3.41;49.00
59154;BME280;44935;48.944;9.418;2023-11-22T07:40:04;99578.91;;;3.87;49.20
59154;BME280;44935;48.944;9.418;2023-11-22T07:42:31;99580.48;;;4.81;48.97
59154;BME280;44935;48.944;9.418;2023-11-22T07:44:58;99582.07;;;4.96;48.62
59154;BME280;44935;48.944;9.418;2023-11-22T07:47:24;99584.90;;;4.75;48.14
59154;BME280;44935;48.944;9.418;2023-11-22T07:49:51;99585.00;;;4.44;46.24
59154;BME280;44935;48.944;9.418;2023-11-22T07:52:18;99579.31;;;2.83;48.44
59154;BME280;44935;48.944;9.418;2023-11-22T07:54:45;99585.64;;;4.83;46.20
59154;BME280;44935;48.944;9.418;2023-11-22T07:57:13;99588.46;;;1.55;52.36
59154;BME280;44935;48.944;9.418;2023-11-22T07:59:40;99585.09;;;3.88;48.68
59154;BME280;44935;48.944;9.418;2023-11-22T08:02:07;99584.54;;;4.50;47.91
59154;BME280;44935;48.944;9.418;2023-11-22T08:04:34;99587.40;;;4.13;48.01
59154;BME280;44935;48.944;9.418;2023-11-22T08:07:01;99582.99;;;3.36;48.00
59154;BME280;44935;48.944;9.418;2023-11-22T08:09:28;99588.40;;;4.42;47.02
59154;BME280;44935;48.944;9.418;2023-11-22T08:11:54;99591.30;;;4.15;48.49
59154;BME280;44935;48.944;9.418;2023-11-22T08:14:21;99584.62;;;4.80;48.62
59154;BME280;44935;48.944;9.418;2023-11-22T08:16:48;99580.09;;;4.62;47.30
59154;BME280;44935;48.944;9.418;2023-11-22T08:19:15;99588.48;;;4.01;46.55
59154;BME280;44935;48.944;9.418;2023-11-22T08:21:42;99588.71;;;4.56;47.40
59154;BME280;44935;48.944;9.418;2023-11-22T08:24:09;99590.74;;;4.56;46.53
59154;BME280;44935;48.944;9.418;2023-11-22T08:26:36;99600.86;;;4.69;48.69
59154;BME280;44935;48.944;9.418;2023-11-22T08:29:03;99603.21;;;4.76;47.90
59154;BME280;44935;48.944;9.418;2023-11-22T08:31:30;99601.02;;;4.73;48.27
59154;BME280;44935;48.944;9.418;2023-11-22T08:33:56;99602.90;;;4.81;48.41
59154;BME280;44935;48.944;9.418;2023-11-22T08:36:23;99599.89;;;4.74;47.51
59154;BME280;44935;48.944;9.418;2023-11-22T08:38:50;99600.23;;;4.32;46.95
59154;BME280;44935;48.944;9.418;2023-11-22T08:41:17;99601.31;;;4.62;48.27
59154;BME280;44935;48.944;9.418;2023-11-22T08:43:44;99605.09;;;4.69;48.55
59154;BME280;44935;48.944;9.418;2023-11-22T08:46:11;99601.65;;;4.60;48.54
59154;BME280;44935;48.944;9.418;2023-11-22T08:48:38;99599.27;;;4.41;48.07
59154;BME280;44935;48.944;9.418;2023-11-22T08:51:05;99603.04;;;3.15;49.76
59154;BME280;44935;48.944;9.418;2023-11-22T08:53:33;99609.10;;;3.69;48.59
59154;BME280;44935;48.944;9.418;2023-11-22T08:56:00;99609.85;;;4.31;48.78
59154;BME280;44935;48.944;9.418;2023-11-22T08:58:26;99603.79;;;5.33;47.31
59154;BME280;44935;48.944;9.418;2023-11-22T09:00:53;99600.05;;;5.48;46.30
59154;BME280;44935;48.944;9.418;2023-11-22T09:03:20;99600.92;;;5.62;45.38
59154;BME280;44935;48.944;9.418;2023-11-22T09:05:47;99596.83;;;5.36;47.16
59154;BME280;44935;48.944;9.418;2023-11-22T09:08:14;99597.84;;;5.09;46.98
59154;BME280;44935;48.944;9.418;2023-11-22T09:10:41;99594.99;;;5.42;45.09
59154;BME280;44935;48.944;9.418;2023-11-22T09:13:09;99595.53;;;5.13;45.71
59154;BME280;44935;48.944;9.418;2023-11-22T09:15:36;99599.32;;;3.93;46.14
59154;BME280;44935;48.944;9.418;2023-11-22T09:18:04;99595.91;;;5.43;46.67
59154;BME280;44935;48.944;9.418;2023-11-22T09:20:31;99598.10;;;5.29;47.04
59154;BME280;44935;48.944;9.418;2023-11-22T09:22:58;99604.92;;;4.49;47.00
59154;BME280;44935;48.944;9.418;2023-11-22T09:25:26;99611.11;;;4.85;47.88
59154;BME280;44935;48.944;9.418;2023-11-22T09:27:55;99609.80;;;5.86;45.89
59154;BME280;44935;48.944;9.418;2023-11-22T09:30:24;99616.93;;;6.11;45.72
59154;BME280;44935;48.944;9.418;2023-11-22T09:32:51;99618.77;;;6.14;45.43
59154;BME280;44935;48.944;9.418;2023-11-22T09:35:18;99617.47;;;5.16;47.89
59154;BME280;44935;48.944;9.418;2023-11-22T09:37:45;99618.40;;;5.27;46.73
59154;BME280;44935;48.944;9.418;2023-11-22T09:40:12;99618.98;;;5.80;47.64
59154;BME280;44935;48.944;9.418;2023-11-22T09:42:39;99617.44;;;5.56;47.74
59154;BME280;44935;48.944;9.418;2023-11-22T09:45:07;99622.68;;;5.09;46.43
59154;BME280;44935;48.944;9.418;2023-11-22T09:47:34;99627.69;;;4.89;46.77
59154;BME280;44935;48.944;9.418;2023-11-22T09:50:02;99632.92;;;2.67;49.60
59154;BME280;44935;48.944;9.418;2023-11-22T09:52:32;99639.60;;;4.69;47.00
59154;BME280;44935;48.944;9.418;2023-11-22T09:55:02;99650.37;;;3.96;47.48
59154;BME280;44935;48.944;9.418;2023-11-22T09:57:30;99651.27;;;4.74;47.05
59154;BME280;44935;48.944;9.418;2023-11-22T09:59:59;99662.55;;;5.14;47.02
59154;BME280;44935;48.944;9.418;2023-11-22T10:02:27;99660.07;;;5.70;45.70
59154;BME280;44935;48.944;9.418;2023-11-22T10:04:54;99666.61;;;5.36;46.67
59154;BME280;44935;48.944;9.418;2023-11-22T10:07:21;99666.28;;;5.27;45.88
59154;BME280;44935;48.944;9.418;2023-11-22T10:09:48;99667.88;;;5.76;45.17
59154;BME280;44935;48.944;9.418;2023-11-22T10:12:19;99677.95;;;5.47;45.11
59154;BME280;44935;48.944;9.418;2023-11-22T10:14:47;99672.28;;;5.99;44.33
59154;BME280;44935;48.944;9.418;2023-11-22T10:17:14;99676.59;;;6.45;44.10
59154;BME280;44935;48.944;9.418;2023-11-22T10:19:41;99677.08;;;6.46;45.16
59154;BME280;44935;48.944;9.418;2023-11-22T10:22:08;99680.01;;;4.99;44.69
59154;BME280;44935;48.944;9.418;2023-11-22T10:24:36;99679.26;;;6.12;44.40
59154;BME280;44935;48.944;9.418;2023-11-22T10:27:03;99674.07;;;5.38;44.66
59154;BME280;44935;48.944;9.418;2023-11-22T10:29:30;99671.64;;;6.10;43.94
59154;BME280;44935;48.944;9.418;2023-11-22T10:31:57;99678.45;;;4.86;47.18
59154;BME280;44935;48.944;9.418;2023-11-22T10:34:24;99673.68;;;5.46;44.75
59154;BME280;44935;48.944;9.418;2023-11-22T10:36:52;99669.60;;;3.04;46.68
59154;BME280;44935;48.944;9.418;2023-11-22T10:39:19;99671.40;;;4.61;46.27
59154;BME280;44935;48.944;9.418;2023-11-22T10:41:47;99662.58;;;5.80;45.10
59154;BME280;44935;48.944;9.418;2023-11-22T10:44:16;99664.34;;;4.15;46.55
59154;BME280;44935;48.944;9.418;2023-11-22T10:46:43;99665.20;;;5.14;44.61
59154;BME280;44935;48.944;9.418;2023-11-22T10:49:10;99666.47;;;5.49;46.42
59154;BME280;44935;48.944;9.418;2023-11-22T10:51:39;99662.54;;;5.82;46.37
59154;BME280;44935;48.944;9.418;2023-11-22T10:54:07;99669.70;;;4.63;46.54
59154;BME280;44935;48.944;9.418;2023-11-22T10:56:38;99671.13;;;5.41;46.28
59154;BME280;44935;48.944;9.418;2023-11-22T10:59:10;99673.97;;;5.23;45.52
59154;BME280;44935;48.944;9.418;2023-11-22T11:01:37;99679.00;;;2.87;49.57
59154;BME280;44935;48.944;9.418;2023-11-22T11:04:09;99682.93;;;4.00;46.19
59154;BME280;44935;48.944;9.418;2023-11-22T11:06:37;99688.29;;;5.74;44.79
59154;BME280;44935;48.944;9.418;2023-11-22T11:09:05;99697.79;;;6.07;45.46
59154;BME280;44935;48.944;9.418;2023-11-22T11:11:34;99700.84;;;4.94;44.17
59154;BME280;44935;48.944;9.418;2023-11-22T11:14:02;99698.93;;;4.88;44.47
59154;BME280;44935;48.944;9.418;2023-11-22T11:16:31;99697.65;;;3.33;47.45
59154;BME280;44935;48.944;9.418;2023-11-22T11:18:58;99698.23;;;4.97;45.09
59154;BME280;44935;48.944;9.418;2023-11-22T11:21:25;99694.61;;;6.30;42.52
59154;BME280;44935;48.944;9.418;2023-11-22T11:23:52;99686.82;;;6.44;41.20
59154;BME280;44935;48.944;9.418;2023-11-22T11:26:20;99688.78;;;5.40;42.20
59154;BME280;44935;48.944;9.418;2023-11-22T11:28:48;99687.79;;;5.67;42.21
59154;BME280;44935;48.944;9.418;2023-11-22T11:31:16;99688.05;;;6.75;42.16
59154;BME280;44935;48.944;9.418;2023-11-22T11:33:59;99688.56;;;5.50;42.57
59154;BME280;44935;48.944;9.418;2023-11-22T11:36:28;99687.51;;;5.26;42.88
59154;BME280;44935;48.944;9.418;2023-11-22T11:38:57;99685.87;;;5.62;43.83
59154;BME280;44935;48.944;9.418;2023-11-22T11:41:26;99688.88;;;6.13;42.82
59154;BME280;44935;48.944;9.418;2023-11-22T11:43:53;99698.87;;;6.57;42.69
59154;BME280;44935;48.944;9.418;2023-11-22T11:46:22;99705.85;;;6.39;43.27
59154;BME280;44935;48.944;9.418;2023-11-22T11:48:50;99716.91;;;6.39;44.05
59154;BME280;44935;48.944;9.418;2023-11-22T11:51:18;99714.14;;;6.40;42.93
59154;BME280;44935;48.944;9.418;2023-11-22T11:53:46;99715.84;;;6.55;43.51
59154;BME280;44935;48.944;9.418;2023-11-22T11:56:14;99715.92;;;6.20;43.55
59154;BME280;44935;48.944;9.418;2023-11-22T11:58:42;99714.28;;;6.51;40.75
59154;BME280;44935;48.944;9.418;2023-11-22T12:01:11;99719.49;;;6.33;42.41
59154;BME280;44935;48.944;9.418;2023-11-22T12:03:39;99719.29;;;5.98;41.62
59154;BME280;44935;48.944;9.418;2023-11-22T12:06:06;99736.19;;;6.07;42.82
59154;BME280;44935;48.944;9.418;2023-11-22T12:08:33;99737.66;;;6.17;43.06
59154;BME280;44935;48.944;9.418;2023-11-22T12:11:01;99730.04;;;6.48;42.86
59154;BME280;44935;48.944;9.418;2023-11-22T12:13:29;99734.07;;;6.18;43.41
59154;BME280;44935;48.944;9.418;2023-11-22T12:15:57;99736.90;;;6.52;43.51
59154;BME280;44935;48.944;9.418;2023-11-22T12:18:24;99744.71;;;6.58;41.90
59154;BME280;44935;48.944;9.418;2023-11-22T12:20:55;99759.07;;;5.89;42.92
59154;BME280;44935;48.944;9.418;2023-11-22T12:23:22;99762.62;;;5.00;42.53
59154;BME280;44935;48.944;9.418;2023-11-22T12:25:54;99758.14;;;6.30;41.65
59154;BME280;44935;48.944;9.418;2023-11-22T12:28:23;99768.84;;;6.61;41.28
59154;BME280;44935;48.944;9.418;2023-11-22T12:30:50;99770.80;;;7.15;40.62
59154;BME280;44935;48.944;9.418;2023-11-22T12:33:17;99769.99;;;5.82;41.27
59154;BME280;44935;48.944;9.418;2023-11-22T12:35:43;99764.17;;;6.94;40.51
59154;BME280;44935;48.944;9.418;2023-11-22T12:38:10;99765.30;;;6.61;41.89
59154;BME280;44935;48.944;9.418;2023-11-22T12:40:38;99764.24;;;5.74;42.07
59154;BME280;44935;48.944;9.418;2023-11-22T12:43:12;99756.53;;;4.46;43.24
59154;BME280;44935;48.944;9.418;2023-11-22T12:45:40;99759.93;;;5.52;41.73
59154;BME280;44935;48.944;9.418;2023-11-22T12:48:24;99760.53;;;4.95;42.94
59154;BME280;44935;48.944;9.418;2023-11-22T12:50:51;99760.75;;;6.14;41.73
59154;BME280;44935;48.944;9.418;2023-11-22T12:53:19;99756.99;;;5.84;43.72
59154;BME280;44935;48.944;9.418;2023-11-22T12:55:47;99751.49;;;6.35;43.32
59154;BME280;44935;48.944;9.418;2023-11-22T12:58:15;99743.48;;;5.93;43.64
59154;BME280;44935;48.944;9.418;2023-11-22T13:00:43;99737.51;;;5.05;43.27
59154;BME280;44935;48.944;9.418;2023-11-22T13:03:11;99739.30;;;5.61;42.38
59154;BME280;44935;48.944;9.418;2023-11-22T13:05:38;99752.27;;;3.76;43.03
59154;BME280;44935;48.944;9.418;2023-11-22T13:08:06;99749.28;;;3.90;41.53
59154;BME280;44935;48.944;9.418;2023-11-22T13:10:33;99746.25;;;4.89;42.09